Strona główna
METAR-TAF:

METAR-TAF

Lotnisko :

Port lotniczy Kristianstad

Kristianstad, Szwecja

Szerokość geograficzna: 55-55N, Długość geograficzna: 014-05E, wysokość: 23 m

Aktualna obserwacja pogody

Raport powstał 11 minut temu, godzina 09:50 UTC
Wiatr 8 kt od zachodnio-południowy zachód, zmienny między południowo-południowy zachód i północno-północny zachód
Temperatura 21°C
Wilgotność 53%
Ciśnienie 1019 hPa
Widzialność 10 km lub więcej

METAR: ESMK 180950Z AUTO 24008KT 210V340 9999 NCD 21/11 Q1019

czas: 12:01 (10:01 UTC)

Prognoza

Raport powstał 19 godziny i 47 minut temu, godzina 14:14 UTC
Prognoza ważna od 17 godzina 15 UTC do 17 godzina 18 UTC
Wiatr 8 kt od zachód
Widzialność 10 km lub więcej
Rozproszone chmury na wysokości 4000 ft
Przejściowo
od 17 godzina 15 UTC do 17 godzina 18 UTC
Rozproszone chmury na wysokości 4000 ft, Cumulonimbus.
przelotny opad deszczu

TAF: ESMK 171414Z 1715/1718 27008KT 9999 SCT040 TEMPO 1715/1718 SHRA SCT040CB

Obserwacja i prognoza pogody dla ponad 4000 lotnisk (raport METAR i TAF).

Dostępne stacje oznaczono żółtymi i czerwonymi punktami na mapie.

Najedź kursorem aby zobaczyć nazwę stacji.

Kliknij aby zobaczyć obserwacje i prognozy pogody.

Aby zmienić mapę: kliknij na zielony przycisk z czarnym krzyżykiem, aby powiększyć; na zielony przycisk z myślnikiem, aby pomniejszyć; na zielone strzałki, aby przejść do map sąsiednich.


METAR-TAF: